createdAt,value
2018-05-10T00:00:05.695Z,18.2
2018-05-10T00:01:05.650Z,18.25
2018-05-10T00:02:05.623Z,18.17
2018-05-10T00:03:05.618Z,18.18
2018-05-10T00:04:05.645Z,18.17
2018-05-10T00:05:05.121Z,18.17
2018-05-10T00:06:05.644Z,18.15
2018-05-10T00:07:05.611Z,18.18
2018-05-10T00:08:05.632Z,18.2
2018-05-10T00:09:05.621Z,18.18
2018-05-10T00:10:05.603Z,18.2
2018-05-10T00:11:05.366Z,18.26
2018-05-10T00:12:05.591Z,18.23
2018-05-10T00:13:05.606Z,18.21
2018-05-10T00:14:05.584Z,18.26
2018-05-10T00:15:05.094Z,18.21
2018-05-10T00:16:05.345Z,18.25
2018-05-10T00:17:05.610Z,18.23
2018-05-10T00:18:05.567Z,18.29
2018-05-10T00:19:05.562Z,18.27
2018-05-10T00:20:05.330Z,18.18
2018-05-10T00:21:05.579Z,18.27
2018-05-10T00:22:05.627Z,18.21
2018-05-10T00:23:05.584Z,18.2
2018-05-10T00:24:05.308Z,18.2
2018-05-10T00:25:05.575Z,18.25
2018-05-10T00:26:05.543Z,18.35
2018-05-10T00:27:05.315Z,18.26
2018-05-10T00:28:05.286Z,18.29
2018-05-10T00:29:05.565Z,18.27
2018-05-10T00:30:05.535Z,18.25
2018-05-10T00:31:05.560Z,18.27
2018-05-10T00:32:05.644Z,18.29
2018-05-10T00:33:05.544Z,18.3
2018-05-10T00:34:05.515Z,18.26
2018-05-10T00:35:05.280Z,18.29
2018-05-10T00:36:05.532Z,18.26
2018-05-10T00:37:05.264Z,18.32
2018-05-10T00:38:05.238Z,18.27
2018-05-10T00:39:05.272Z,18.32
2018-05-10T00:40:04.985Z,18.3
2018-05-10T00:41:05.260Z,18.35
2018-05-10T00:42:05.240Z,18.42
2018-05-10T00:43:05.529Z,18.27
2018-05-10T00:44:05.237Z,18.39
2018-05-10T00:45:05.247Z,18.33
2018-05-10T00:46:05.464Z,18.39
2018-05-10T00:47:05.614Z,18.36
2018-05-10T00:48:05.506Z,18.3
2018-05-10T00:49:05.225Z,18.33
2018-05-10T00:50:05.452Z,18.39
2018-05-10T00:51:05.231Z,18.32
2018-05-10T00:52:05.215Z,18.33
2018-05-10T00:53:05.217Z,18.36
2018-05-10T00:54:05.480Z,18.3
2018-05-10T00:55:05.178Z,18.33
2018-05-10T00:56:05.460Z,18.39
2018-05-10T00:57:05.426Z,18.39
2018-05-10T00:58:05.209Z,18.32
2018-05-10T00:59:05.167Z,18.3
2018-05-10T01:00:05.455Z,18.37
2018-05-10T01:01:05.433Z,18.36
2018-05-10T01:02:05.162Z,18.32
2018-05-10T01:03:05.439Z,18.36
2018-05-10T01:04:05.438Z,18.44
2018-05-10T01:05:05.432Z,18.42
2018-05-10T01:06:05.395Z,18.44
2018-05-10T01:07:05.137Z,18.41
2018-05-10T01:08:05.420Z,18.42
2018-05-10T01:09:05.402Z,18.45
2018-05-10T01:10:04.900Z,18.45
2018-05-10T01:11:05.127Z,18.36
2018-05-10T01:12:05.143Z,18.42
2018-05-10T01:13:05.120Z,18.47
2018-05-10T01:14:05.400Z,18.41
2018-05-10T01:15:05.361Z,18.47
2018-05-10T01:16:05.396Z,18.5
2018-05-10T01:17:05.375Z,18.41
2018-05-10T01:18:05.388Z,18.37
2018-05-10T01:19:05.353Z,18.55
2018-05-10T01:20:05.356Z,18.48
2018-05-10T01:21:05.357Z,18.44
2018-05-10T01:22:05.375Z,18.48
2018-05-10T01:23:05.371Z,18.51
2018-05-10T01:24:05.345Z,18.54
2018-05-10T01:25:04.834Z,18.5
2018-05-10T01:26:04.842Z,18.51
2018-05-10T01:27:05.322Z,18.57
2018-05-10T01:28:05.352Z,18.5
2018-05-10T01:29:05.065Z,18.52
2018-05-10T01:30:05.377Z,18.45
2018-05-10T01:31:05.313Z,18.54
2018-05-10T01:32:05.353Z,18.51
2018-05-10T01:33:05.317Z,18.62
2018-05-10T01:34:05.333Z,18.51
2018-05-10T01:35:05.305Z,18.55
2018-05-10T01:36:05.045Z,18.58
2018-05-10T01:37:05.299Z,18.58
2018-05-10T01:38:05.321Z,18.55
2018-05-10T01:39:05.327Z,18.55
2018-05-10T01:40:05.028Z,18.62
2018-05-10T01:41:05.290Z,18.55
2018-05-10T01:42:05.295Z,18.6
2018-05-10T01:43:05.060Z,18.52
2018-05-10T01:44:05.270Z,18.58
2018-05-10T01:45:05.039Z,18.55
2018-05-10T01:46:05.261Z,18.54
2018-05-10T01:47:05.284Z,18.48
2018-05-10T01:48:05.248Z,18.44
2018-05-10T01:49:05.264Z,18.5
2018-05-10T01:50:05.240Z,18.54
2018-05-10T01:51:05.013Z,18.47
2018-05-10T01:52:04.996Z,18.45
2018-05-10T01:53:05.246Z,18.57
2018-05-10T01:54:05.316Z,18.47
2018-05-10T01:55:05.278Z,18.54
2018-05-10T01:56:04.971Z,18.52
2018-05-10T01:57:04.977Z,18.42
2018-05-10T01:58:05.211Z,18.37
2018-05-10T01:59:04.985Z,18.44
2018-05-10T02:00:04.707Z,18.42
2018-05-10T02:01:05.239Z,18.48
2018-05-10T02:02:05.198Z,18.39
2018-05-10T02:03:04.971Z,18.36
2018-05-10T02:04:05.193Z,18.36
2018-05-10T02:05:04.950Z,18.36
2018-05-10T02:06:05.197Z,18.41
2018-05-10T02:07:04.959Z,18.42
2018-05-10T02:08:04.950Z,18.44
2018-05-10T02:09:05.195Z,18.36
2018-05-10T02:10:05.171Z,18.44
2018-05-10T02:11:04.921Z,18.41
2018-05-10T02:12:04.984Z,18.45
2018-05-10T02:13:04.925Z,18.37
2018-05-10T02:14:05.191Z,18.44
2018-05-10T02:15:04.905Z,18.44
2018-05-10T02:16:05.203Z,18.45
2018-05-10T02:17:05.169Z,18.39
2018-05-10T02:18:04.896Z,18.42
2018-05-10T02:19:05.184Z,18.42
2018-05-10T02:20:05.137Z,18.48
2018-05-10T02:21:05.166Z,18.41
2018-05-10T02:22:05.126Z,18.41
2018-05-10T02:23:05.161Z,18.45
2018-05-10T02:24:05.155Z,18.41
2018-05-10T02:25:05.177Z,18.47
2018-05-10T02:26:05.112Z,18.45
2018-05-10T02:27:05.109Z,18.41
2018-05-10T02:28:05.134Z,18.44
2018-05-10T02:29:04.863Z,18.45
2018-05-10T02:30:04.878Z,18.44
2018-05-10T02:31:04.842Z,18.45
2018-05-10T02:32:05.122Z,18.39
2018-05-10T02:33:04.835Z,18.44
2018-05-10T02:34:04.608Z,18.47
2018-05-10T02:35:05.082Z,18.41
2018-05-10T02:36:04.861Z,18.44
2018-05-10T02:37:05.191Z,18.47
2018-05-10T02:38:05.113Z,18.35
2018-05-10T02:39:05.071Z,18.41
2018-05-10T02:40:05.078Z,18.39
2018-05-10T02:41:04.823Z,18.41
2018-05-10T02:42:05.097Z,18.41
2018-05-10T02:43:05.062Z,18.37
2018-05-10T02:44:05.088Z,18.41
2018-05-10T02:45:05.245Z,18.36
2018-05-10T02:46:05.099Z,18.36
2018-05-10T02:47:05.045Z,18.47
2018-05-10T02:48:05.078Z,18.33
2018-05-10T02:49:04.784Z,18.3
2018-05-10T02:50:04.807Z,18.36
2018-05-10T02:51:04.527Z,18.42
2018-05-10T02:52:04.800Z,18.32
2018-05-10T02:53:05.032Z,18.3
2018-05-10T02:54:04.813Z,18.32
2018-05-10T02:55:05.021Z,18.3
2018-05-10T02:56:04.763Z,18.42
2018-05-10T02:57:05.029Z,18.32
2018-05-10T02:58:04.791Z,18.41
2018-05-10T02:59:05.031Z,18.37
2018-05-10T03:00:05.001Z,18.32
2018-05-10T03:01:05.009Z,18.3
2018-05-10T03:02:04.742Z,18.29
2018-05-10T03:03:04.760Z,18.35
2018-05-10T03:04:04.738Z,18.37
2018-05-10T03:05:04.751Z,18.33
2018-05-10T03:06:04.969Z,18.29
2018-05-10T03:07:05.095Z,18.3
2018-05-10T03:08:04.735Z,18.29
2018-05-10T03:09:04.994Z,18.3
2018-05-10T03:10:05.011Z,18.3
2018-05-10T03:11:04.972Z,18.32
2018-05-10T03:12:04.699Z,18.35
2018-05-10T03:13:04.722Z,18.33
2018-05-10T03:14:04.735Z,18.23
2018-05-10T03:15:04.977Z,18.23
2018-05-10T03:16:04.944Z,18.26
2018-05-10T03:17:04.947Z,18.2
2018-05-10T03:18:04.935Z,18.18
2018-05-10T03:19:04.963Z,18.29
2018-05-10T03:20:04.930Z,18.2
2018-05-10T03:21:04.696Z,18.14
2018-05-10T03:22:04.914Z,18.2
2018-05-10T03:23:04.943Z,18.27
2018-05-10T03:24:04.908Z,18.15
2018-05-10T03:25:04.409Z,18.32
2018-05-10T03:26:04.897Z,18.18
2018-05-10T03:27:04.670Z,18.17
2018-05-10T03:28:04.661Z,18.17
2018-05-10T03:29:04.647Z,18.21
2018-05-10T03:30:04.894Z,18.2
2018-05-10T03:31:04.883Z,18.18
2018-05-10T03:32:04.646Z,18.18
2018-05-10T03:33:04.888Z,18.21
2018-05-10T03:34:04.615Z,18.21
2018-05-10T03:35:04.639Z,18.21
2018-05-10T03:36:04.864Z,18.18
2018-05-10T03:37:04.631Z,18.17
2018-05-10T03:38:04.599Z,18.23
2018-05-10T03:39:04.890Z,18.25
2018-05-10T03:40:04.592Z,18.2
2018-05-10T03:41:04.865Z,18.17
2018-05-10T03:42:04.839Z,18.23
2018-05-10T03:43:04.868Z,18.21
2018-05-10T03:44:04.603Z,18.11
2018-05-10T03:45:04.860Z,18.2
2018-05-10T03:46:04.581Z,18.2
2018-05-10T03:47:04.605Z,18.21
2018-05-10T03:48:04.570Z,18.2
2018-05-10T03:49:04.826Z,18.18
2018-05-10T03:50:04.573Z,18.15
2018-05-10T03:51:04.842Z,18.23
2018-05-10T03:52:04.298Z,18.25
2018-05-10T03:53:04.839Z,18.25
2018-05-10T03:54:04.798Z,18.23
2018-05-10T03:55:04.827Z,18.25
2018-05-10T03:56:04.791Z,18.32
2018-05-10T03:57:04.802Z,18.3
2018-05-10T03:58:04.781Z,18.29
2018-05-10T03:59:04.808Z,18.32
2018-05-10T04:00:04.525Z,18.5
2018-05-10T04:01:04.529Z,18.57
2018-05-10T04:02:04.843Z,18.55
2018-05-10T04:03:04.795Z,18.67
2018-05-10T04:04:04.510Z,18.73
2018-05-10T04:05:04.517Z,18.84
2018-05-10T04:06:04.938Z,18.94
2018-05-10T04:07:04.529Z,18.98
2018-05-10T04:08:04.753Z,18.94
2018-05-10T04:09:04.517Z,19.02
2018-05-10T04:10:04.786Z,19.02
2018-05-10T04:11:04.511Z,19.02
2018-05-10T04:12:04.483Z,19.02
2018-05-10T04:13:04.748Z,19.02
2018-05-10T04:14:04.741Z,19.07
2018-05-10T04:15:04.769Z,19.07
2018-05-10T04:16:04.761Z,19
2018-05-10T04:17:04.224Z,19.02
2018-05-10T04:18:04.468Z,19.07
2018-05-10T04:19:04.713Z,19.07
2018-05-10T04:20:04.482Z,19.04
2018-05-10T04:21:04.727Z,19.08
2018-05-10T04:22:04.481Z,19.04
2018-05-10T04:23:04.449Z,19.08
2018-05-10T04:24:04.724Z,19.07
2018-05-10T04:25:04.456Z,19.07
2018-05-10T04:26:04.438Z,19.02
2018-05-10T04:27:04.730Z,19.06
2018-05-10T04:28:04.176Z,19
2018-05-10T04:29:04.703Z,19
2018-05-10T04:30:04.676Z,19.02
2018-05-10T04:31:04.451Z,19.04
2018-05-10T04:32:04.451Z,19.02
2018-05-10T04:33:04.686Z,19.13
2018-05-10T04:34:04.663Z,19.06
2018-05-10T04:35:04.661Z,19.04
2018-05-10T04:36:04.429Z,19.06
2018-05-10T04:37:04.675Z,19.18
2018-05-10T04:38:04.701Z,19.21
2018-05-10T04:39:04.653Z,19.14
2018-05-10T04:40:04.677Z,19.11
2018-05-10T04:41:04.655Z,19.22
2018-05-10T04:42:04.416Z,19.22
2018-05-10T04:43:04.647Z,19.29
2018-05-10T04:44:04.417Z,19.26
2018-05-10T04:45:04.651Z,19.29
2018-05-10T04:46:04.669Z,19.23
2018-05-10T04:47:04.646Z,19.26
2018-05-10T04:48:04.374Z,19.26
2018-05-10T04:49:04.376Z,19.23
2018-05-10T04:50:04.652Z,19.31
2018-05-10T04:51:04.148Z,19.28
2018-05-10T04:52:04.639Z,19.25
2018-05-10T04:53:04.634Z,19.37
2018-05-10T04:54:04.378Z,19.36
2018-05-10T04:55:04.348Z,19.36
2018-05-10T04:56:04.368Z,19.37
2018-05-10T04:57:04.346Z,19.44
2018-05-10T04:58:04.378Z,19.47
2018-05-10T04:59:04.586Z,19.5
2018-05-10T05:00:04.626Z,19.5
2018-05-10T05:01:04.600Z,19.47
2018-05-10T05:02:04.617Z,19.59
2018-05-10T05:03:04.323Z,19.55
2018-05-10T05:04:04.597Z,19.65
2018-05-10T05:05:04.327Z,19.71
2018-05-10T05:06:04.604Z,19.73
2018-05-10T05:07:04.609Z,19.69
2018-05-10T05:08:04.314Z,19.76
2018-05-10T05:09:04.713Z,19.77
2018-05-10T05:10:04.308Z,19.74
2018-05-10T05:11:04.334Z,19.87
2018-05-10T05:12:04.787Z,19.81
2018-05-10T05:13:04.582Z,19.83
2018-05-10T05:14:04.042Z,19.92
2018-05-10T05:15:04.318Z,19.91
2018-05-10T05:16:04.291Z,19.92
2018-05-10T05:17:04.040Z,19.88
2018-05-10T05:18:04.312Z,20.08
2018-05-10T05:19:04.535Z,20.05
2018-05-10T05:20:04.281Z,20.08
2018-05-10T05:21:04.293Z,20.18
2018-05-10T05:22:04.307Z,20.05
2018-05-10T05:23:04.597Z,20.23
2018-05-10T05:24:04.270Z,20.28
2018-05-10T05:25:04.535Z,20.21
2018-05-10T05:26:04.518Z,20.26
2018-05-10T05:27:04.289Z,20.26
2018-05-10T05:28:04.260Z,20.29
2018-05-10T05:29:04.285Z,20.36
2018-05-10T05:30:04.503Z,20.39
2018-05-10T05:31:04.288Z,20.47
2018-05-10T05:32:04.262Z,20.57
2018-05-10T05:33:04.526Z,20.55
2018-05-10T05:34:04.244Z,20.64
2018-05-10T05:35:04.270Z,20.64
2018-05-10T05:36:04.527Z,20.7
2018-05-10T05:37:04.259Z,20.69
2018-05-10T05:38:04.489Z,20.7
2018-05-10T05:39:04.492Z,20.73
2018-05-10T05:40:04.520Z,20.87
2018-05-10T05:41:04.676Z,20.79
2018-05-10T05:42:04.228Z,20.85
2018-05-10T05:43:04.512Z,20.88
2018-05-10T05:44:04.232Z,21.01
2018-05-10T05:45:04.250Z,21.06
2018-05-10T05:46:04.472Z,21.17
2018-05-10T05:47:04.505Z,21.21
2018-05-10T05:48:04.476Z,21.19
2018-05-10T05:49:03.976Z,21.22
2018-05-10T05:50:04.214Z,21.28
2018-05-10T05:51:04.502Z,21.32
2018-05-10T05:52:04.247Z,21.43
2018-05-10T05:53:04.232Z,21.56
2018-05-10T05:54:04.461Z,21.62
2018-05-10T05:55:04.674Z,21.71
2018-05-10T05:56:04.493Z,21.74
2018-05-10T05:57:04.476Z,21.88
2018-05-10T05:58:04.490Z,21.91
2018-05-10T05:59:04.204Z,21.98
2018-05-10T06:00:04.484Z,22.12
2018-05-10T06:01:04.455Z,22.27
2018-05-10T06:02:04.493Z,22.37
2018-05-10T06:03:04.452Z,22.45
2018-05-10T06:04:04.491Z,22.6
2018-05-10T06:05:04.475Z,22.61
2018-05-10T06:06:04.485Z,22.72
2018-05-10T06:07:04.195Z,22.73
2018-05-10T06:08:04.485Z,22.91
2018-05-10T06:09:04.479Z,22.91
2018-05-10T06:10:04.461Z,23
2018-05-10T06:11:04.201Z,23.04
2018-05-10T06:12:04.484Z,23.1
2018-05-10T06:13:04.469Z,23.13
2018-05-10T06:14:04.226Z,23.16
2018-05-10T06:15:04.200Z,23.28
2018-05-10T06:16:04.858Z,23.19
2018-05-10T06:17:04.201Z,23.25
2018-05-10T06:18:04.489Z,23.46
2018-05-10T06:19:04.209Z,23.4
2018-05-10T06:20:04.494Z,23.57
2018-05-10T06:21:04.482Z,23.72
2018-05-10T06:22:04.230Z,23.78
2018-05-10T06:23:04.459Z,23.91
2018-05-10T06:24:04.463Z,24.05
2018-05-10T06:25:04.682Z,24.09
2018-05-10T06:26:04.250Z,24.22
2018-05-10T06:27:04.237Z,24.16
2018-05-10T06:28:04.467Z,24.21
2018-05-10T06:29:03.966Z,24.34
2018-05-10T06:30:04.464Z,24.45
2018-05-10T06:31:04.250Z,24.5
2018-05-10T06:32:03.968Z,24.69
2018-05-10T06:33:04.485Z,24.85
2018-05-10T06:34:04.321Z,24.87
2018-05-10T06:35:04.474Z,24.96
2018-05-10T06:36:04.248Z,25.02
2018-05-10T06:37:04.489Z,25.09
2018-05-10T06:38:04.252Z,25.14
2018-05-10T06:39:04.228Z,25.23
2018-05-10T06:40:04.232Z,25.3
2018-05-10T06:41:04.245Z,25.42
2018-05-10T06:42:04.267Z,25.64
2018-05-10T06:43:04.005Z,25.9
2018-05-10T06:44:04.242Z,26.28
2018-05-10T06:45:04.264Z,26.69
2018-05-10T06:46:04.246Z,27.03
2018-05-10T06:47:04.278Z,27.47
2018-05-10T06:48:04.515Z,27.87
2018-05-10T06:49:04.572Z,28.34
2018-05-10T06:50:04.524Z,28.86
2018-05-10T06:51:04.303Z,29.24
2018-05-10T06:52:04.537Z,29.68
2018-05-10T06:53:04.311Z,30.11
2018-05-10T06:54:04.042Z,30.65
2018-05-10T06:55:04.333Z,31.19
2018-05-10T06:56:04.335Z,31.5
2018-05-10T06:57:04.600Z,31.99
2018-05-10T06:58:04.590Z,32.38
2018-05-10T06:59:04.624Z,32.55
2018-05-10T07:00:04.353Z,32.78
2018-05-10T07:01:04.633Z,32.89
2018-05-10T07:02:04.121Z,33.07
2018-05-10T07:03:04.410Z,33.11
2018-05-10T07:04:04.400Z,33.35
2018-05-10T07:05:04.430Z,33.37
2018-05-10T07:06:04.681Z,33.59
2018-05-10T07:07:04.454Z,33.66
2018-05-10T07:08:04.438Z,33.79
2018-05-10T07:09:04.719Z,33.82
2018-05-10T07:10:04.840Z,33.65
2018-05-10T07:11:04.504Z,33.53
2018-05-10T07:12:04.493Z,33.31
2018-05-10T07:13:04.766Z,33.31
2018-05-10T07:14:04.807Z,33.32
2018-05-10T07:15:04.813Z,33.28
2018-05-10T07:16:04.790Z,33.31
2018-05-10T07:17:04.815Z,33.31
2018-05-10T07:18:04.813Z,33.41
2018-05-10T07:19:04.600Z,33.42
2018-05-10T07:20:04.586Z,33.38
2018-05-10T07:21:04.631Z,33.31
2018-05-10T07:22:04.606Z,33.15
2018-05-10T07:23:04.393Z,33.03
2018-05-10T07:24:04.634Z,32.88
2018-05-10T07:25:04.849Z,32.81
2018-05-10T07:26:04.686Z,32.77
2018-05-10T07:27:04.946Z,32.72
2018-05-10T07:28:04.681Z,32.67
2018-05-10T07:29:04.964Z,32.6
2018-05-10T07:30:04.989Z,32.56
2018-05-10T07:31:04.999Z,32.52
2018-05-10T07:32:04.983Z,32.45
2018-05-10T07:33:04.875Z,32.56
2018-05-10T07:34:04.745Z,32.74
2018-05-10T07:35:05.045Z,32.75
2018-05-10T07:36:04.775Z,32.63
2018-05-10T07:37:04.811Z,32.72
2018-05-10T07:38:05.041Z,32.79
2018-05-10T07:39:04.833Z,32.81
2018-05-10T07:40:05.072Z,32.79
2018-05-10T07:41:05.096Z,32.82
2018-05-10T07:42:04.939Z,33
2018-05-10T07:43:05.144Z,33.18
2018-05-10T07:44:04.886Z,33.32
2018-05-10T07:45:05.152Z,33.5
2018-05-10T07:46:05.140Z,33.51
2018-05-10T07:47:04.898Z,33.65
2018-05-10T07:48:05.195Z,33.76
2018-05-10T07:49:04.947Z,33.88
2018-05-10T07:50:05.205Z,34.02
2018-05-10T07:51:05.240Z,33.97
2018-05-10T07:52:04.971Z,33.86
2018-05-10T07:53:05.063Z,33.88
2018-05-10T07:54:04.988Z,33.82
2018-05-10T07:55:05.293Z,33.75
2018-05-10T07:56:05.266Z,33.63
2018-05-10T07:57:05.298Z,33.63
2018-05-10T07:58:05.042Z,33.76
2018-05-10T07:59:05.344Z,33.78
2018-05-10T08:00:05.101Z,33.9
2018-05-10T08:01:05.354Z,33.97
2018-05-10T08:02:05.111Z,34.03
2018-05-10T08:03:05.366Z,33.98
2018-05-10T08:04:05.412Z,33.95
2018-05-10T08:05:05.420Z,33.78
2018-05-10T08:06:05.436Z,33.63
2018-05-10T08:07:05.416Z,33.49
2018-05-10T08:08:05.456Z,33.39
2018-05-10T08:09:05.186Z,33.37
2018-05-10T08:10:05.662Z,33.29
2018-05-10T08:11:04.956Z,33.21
2018-05-10T08:12:05.512Z,33.06
2018-05-10T08:13:05.516Z,33.04
2018-05-10T08:14:05.549Z,32.96
2018-05-10T08:15:05.264Z,32.89
2018-05-10T08:16:05.565Z,32.89
2018-05-10T08:17:05.470Z,32.7
2018-05-10T08:18:05.313Z,32.59
2018-05-10T08:19:05.574Z,32.51
2018-05-10T08:20:05.601Z,32.4
2018-05-10T08:21:05.605Z,32.18
2018-05-10T08:22:05.623Z,32
2018-05-10T08:23:05.618Z,32.01
2018-05-10T08:24:05.663Z,31.99
2018-05-10T08:25:05.379Z,31.89
2018-05-10T08:26:05.672Z,31.96
2018-05-10T08:27:05.650Z,31.96
2018-05-10T08:28:05.699Z,32
2018-05-10T08:29:05.428Z,32.01
2018-05-10T08:30:05.458Z,32.15
2018-05-10T08:31:05.445Z,32.23
2018-05-10T08:32:05.712Z,32.21
2018-05-10T08:33:05.487Z,32.15
2018-05-10T08:34:05.251Z,32.21
2018-05-10T08:35:05.786Z,32.13
2018-05-10T08:36:05.764Z,32.19
2018-05-10T08:37:05.526Z,32.23
2018-05-10T08:38:05.785Z,32.35
2018-05-10T08:39:05.838Z,32.52
2018-05-10T08:40:05.825Z,32.4
2018-05-10T08:41:05.579Z,32.45
2018-05-10T08:42:05.610Z,32.26
2018-05-10T08:43:05.847Z,32.15
2018-05-10T08:44:05.896Z,32.03
2018-05-10T08:45:05.725Z,31.92
2018-05-10T08:46:05.403Z,31.7
2018-05-10T08:47:05.892Z,31.43
2018-05-10T08:48:05.905Z,31.21
2018-05-10T08:49:05.936Z,31.06
2018-05-10T08:50:05.957Z,30.84
2018-05-10T08:51:05.991Z,30.65
2018-05-10T08:52:05.530Z,30.43
2018-05-10T08:53:05.455Z,30.31
2018-05-10T08:54:05.709Z,30.22
2018-05-10T08:55:05.746Z,30.02
2018-05-10T08:56:05.992Z,29.97
2018-05-10T08:57:05.762Z,29.76
2018-05-10T08:58:06.004Z,29.6
2018-05-10T08:59:05.527Z,29.41
2018-05-10T09:00:05.873Z,29.18
2018-05-10T09:01:06.040Z,28.95
2018-05-10T09:02:05.774Z,28.68
2018-05-10T09:03:06.074Z,28.54
2018-05-10T09:04:05.817Z,28.41
2018-05-10T09:05:05.810Z,28.22
2018-05-10T09:06:06.060Z,28.17
2018-05-10T09:07:06.096Z,28.06
2018-05-10T09:08:05.817Z,27.96
2018-05-10T09:09:06.107Z,27.9
2018-05-10T09:10:05.828Z,27.84
2018-05-10T09:11:06.126Z,27.81
2018-05-10T09:12:06.121Z,27.79
2018-05-10T09:13:05.611Z,27.75
2018-05-10T09:15:06.109Z,27.57
2018-05-10T09:16:06.215Z,27.43
2018-05-10T09:17:05.862Z,27.27
2018-05-10T09:18:05.898Z,27.21
2018-05-10T09:19:05.879Z,27.12
2018-05-10T09:20:05.653Z,27.1
2018-05-10T09:21:06.128Z,27.02
2018-05-10T09:22:05.920Z,26.99
2018-05-10T09:23:06.149Z,27.06
2018-05-10T09:24:06.165Z,26.97
2018-05-10T09:25:06.153Z,27
2018-05-10T09:26:06.150Z,27.02
2018-05-10T09:27:05.927Z,27
2018-05-10T09:28:06.194Z,27
2018-05-10T09:29:05.906Z,27.02
2018-05-10T09:30:06.169Z,27.03
2018-05-10T09:31:06.202Z,26.97
2018-05-10T09:32:06.198Z,26.94
2018-05-10T09:33:06.179Z,26.94
2018-05-10T09:34:05.954Z,26.97
2018-05-10T09:35:06.211Z,26.97
2018-05-10T09:36:05.965Z,26.97
2018-05-10T09:37:05.942Z,26.95
2018-05-10T09:38:06.224Z,27.03
2018-05-10T09:39:06.271Z,26.94
2018-05-10T09:40:06.220Z,27
2018-05-10T09:41:06.202Z,27.04
2018-05-10T09:42:06.233Z,27.03
2018-05-10T09:43:06.235Z,27.03
2018-05-10T09:45:06.259Z,27.18
2018-05-10T09:46:06.264Z,27.06
2018-05-10T09:47:05.998Z,27.13
2018-05-10T09:48:06.220Z,27.13
2018-05-10T09:49:06.263Z,27.22
2018-05-10T09:50:05.987Z,27.29
2018-05-10T09:51:06.269Z,27.31
2018-05-10T09:52:05.981Z,27.31
2018-05-10T09:53:06.241Z,27.24
2018-05-10T09:54:06.259Z,27.24
2018-05-10T09:55:06.024Z,27.29
2018-05-10T09:56:06.038Z,27.29
2018-05-10T09:57:06.266Z,27.29
2018-05-10T09:58:06.275Z,27.28
2018-05-10T09:59:06.048Z,27.28
2018-05-10T10:00:06.291Z,27.29
2018-05-10T10:01:06.294Z,27.28
2018-05-10T10:02:06.366Z,27.29
2018-05-10T10:03:06.303Z,27.28
2018-05-10T10:04:06.026Z,27.39
2018-05-10T10:05:06.318Z,27.44
2018-05-10T10:06:06.389Z,27.46
2018-05-10T10:07:06.338Z,27.5
2018-05-10T10:08:06.040Z,27.59
2018-05-10T10:09:06.304Z,27.6
2018-05-10T10:10:06.052Z,27.6
2018-05-10T10:11:05.817Z,27.59
2018-05-10T10:12:06.085Z,27.66
2018-05-10T10:13:06.319Z,27.66
2018-05-10T10:14:06.327Z,27.7
2018-05-10T10:15:05.806Z,27.7
2018-05-10T10:16:06.355Z,27.78
2018-05-10T10:17:06.075Z,27.69
2018-05-10T10:18:06.358Z,27.82
2018-05-10T10:19:05.820Z,27.85
2018-05-10T10:20:06.109Z,27.88
2018-05-10T10:21:06.090Z,27.92
2018-05-10T10:22:05.847Z,27.97
2018-05-10T10:23:06.090Z,27.99
2018-05-10T10:24:06.122Z,27.96
2018-05-10T10:25:06.370Z,27.94
2018-05-10T10:26:05.855Z,27.84
2018-05-10T10:27:06.400Z,27.96
2018-05-10T10:28:05.878Z,27.94
2018-05-10T10:29:06.400Z,27.94
2018-05-10T10:30:06.136Z,27.88
2018-05-10T10:31:06.389Z,27.84
2018-05-10T10:32:06.156Z,27.75
2018-05-10T10:33:06.134Z,27.72
2018-05-10T10:34:06.167Z,27.79
2018-05-10T10:35:06.178Z,27.77
2018-05-10T10:36:05.926Z,27.74
2018-05-10T10:37:06.404Z,27.6
2018-05-10T10:38:06.215Z,27.51
2018-05-10T10:39:06.186Z,27.47
2018-05-10T10:40:06.545Z,27.49
2018-05-10T10:41:06.179Z,27.47
2018-05-10T10:42:06.198Z,27.47
2018-05-10T10:43:06.225Z,27.46
2018-05-10T10:44:06.466Z,27.46
2018-05-10T10:45:06.210Z,27.55
2018-05-10T10:46:06.457Z,27.55
2018-05-10T10:47:06.199Z,27.5
2018-05-10T10:48:06.229Z,27.5
2018-05-10T10:49:06.216Z,27.65
2018-05-10T10:50:05.947Z,27.57
2018-05-10T10:51:06.483Z,27.6
2018-05-10T10:52:06.461Z,27.62
2018-05-10T10:53:06.232Z,27.7
2018-05-10T10:54:06.483Z,27.77
2018-05-10T10:55:06.248Z,27.84
2018-05-10T10:56:06.478Z,27.92
2018-05-10T10:57:06.232Z,27.99
2018-05-10T10:58:06.237Z,27.96
2018-05-10T10:59:06.262Z,28.07
2018-05-10T11:00:06.445Z,28.11
2018-05-10T11:01:06.245Z,28.15
2018-05-10T11:02:06.247Z,28.12
2018-05-10T11:03:06.491Z,28.21
2018-05-10T11:04:06.535Z,28.27
2018-05-10T11:05:06.253Z,28.19
2018-05-10T11:06:06.282Z,28.36
2018-05-10T11:07:06.263Z,28.3
2018-05-10T11:08:06.300Z,28.3
2018-05-10T11:09:06.672Z,28.39
2018-05-10T11:10:06.543Z,28.41
2018-05-10T11:11:06.528Z,28.51
2018-05-10T11:12:06.560Z,28.59
2018-05-10T11:13:06.305Z,28.59
2018-05-10T11:14:06.304Z,28.64
2018-05-10T11:15:06.689Z,28.7
2018-05-10T11:16:06.337Z,28.76
2018-05-10T11:17:06.581Z,28.88
2018-05-10T11:18:06.585Z,28.85
2018-05-10T11:19:06.570Z,28.96
2018-05-10T11:20:06.613Z,28.92
2018-05-10T11:21:06.610Z,28.85
2018-05-10T11:22:06.355Z,28.95
2018-05-10T11:23:06.078Z,28.96
2018-05-10T11:24:06.622Z,29.04
2018-05-10T11:25:06.337Z,29.08
2018-05-10T11:26:06.359Z,29.12
2018-05-10T11:27:06.351Z,29.09
2018-05-10T11:28:06.385Z,29.18
2018-05-10T11:29:06.643Z,29.26
2018-05-10T11:30:06.381Z,29.23
2018-05-10T11:31:06.367Z,29.33
2018-05-10T11:32:06.620Z,29.33
2018-05-10T11:33:06.783Z,29.42
2018-05-10T11:34:06.401Z,29.49
2018-05-10T11:35:06.155Z,29.51
2018-05-10T11:36:06.183Z,29.57
2018-05-10T11:37:06.677Z,29.61
2018-05-10T11:38:06.679Z,29.58
2018-05-10T11:39:06.480Z,29.55
2018-05-10T11:40:06.419Z,29.53
2018-05-10T11:41:06.456Z,29.57
2018-05-10T11:42:06.439Z,29.55
2018-05-10T11:43:06.444Z,29.61
2018-05-10T11:44:06.730Z,29.67
2018-05-10T11:45:06.478Z,29.8
2018-05-10T11:46:06.214Z,29.79
2018-05-10T11:47:06.193Z,29.95
2018-05-10T11:48:06.473Z,29.94
2018-05-10T11:49:06.486Z,29.92
2018-05-10T11:50:06.492Z,29.92
2018-05-10T11:51:06.504Z,30
2018-05-10T11:52:06.509Z,29.97
2018-05-10T11:53:06.775Z,30.08
2018-05-10T11:54:06.742Z,30.16
2018-05-10T11:55:06.787Z,30.26
2018-05-10T11:56:06.758Z,30.23
2018-05-10T11:57:06.535Z,30.31
2018-05-10T11:58:06.526Z,30.31
2018-05-10T11:59:06.543Z,30.42
2018-05-10T12:00:06.771Z,30.46
2018-05-10T12:01:06.530Z,30.47
2018-05-10T12:02:06.302Z,30.57
2018-05-10T12:03:06.830Z,30.53
2018-05-10T12:04:06.325Z,30.45
2018-05-10T12:05:06.555Z,30.47
2018-05-10T12:06:06.614Z,30.35
2018-05-10T12:07:06.593Z,30.26
2018-05-10T12:08:06.564Z,30.29
2018-05-10T12:09:06.341Z,30.27
2018-05-10T12:10:06.842Z,30.37
2018-05-10T12:11:06.613Z,30.42
2018-05-10T12:12:06.607Z,30.49
2018-05-10T12:13:06.648Z,30.51
2018-05-10T12:14:06.886Z,30.54
2018-05-10T12:15:06.665Z,30.57
2018-05-10T12:16:06.876Z,30.49
2018-05-10T12:17:06.376Z,30.53
2018-05-10T12:18:06.906Z,30.57
2018-05-10T12:19:06.666Z,30.54
2018-05-10T12:20:06.641Z,30.64
2018-05-10T12:21:06.937Z,30.75
2018-05-10T12:22:06.925Z,30.75
2018-05-10T12:23:06.684Z,30.76
2018-05-10T12:24:06.939Z,30.76
2018-05-10T12:25:06.962Z,30.61
2018-05-10T12:26:06.927Z,30.62
2018-05-10T12:27:06.974Z,30.7
2018-05-10T12:28:06.687Z,30.72
2018-05-10T12:29:07.002Z,30.86
2018-05-10T12:30:06.723Z,30.83
2018-05-10T12:31:07.175Z,30.83
2018-05-10T12:32:06.967Z,30.86
2018-05-10T12:33:06.748Z,30.79
2018-05-10T12:34:06.760Z,30.83
2018-05-10T12:35:06.976Z,30.91
2018-05-10T12:36:06.739Z,30.84
2018-05-10T12:37:07.025Z,30.8
2018-05-10T12:38:06.775Z,30.83
2018-05-10T12:39:06.780Z,30.82
2018-05-10T12:40:06.507Z,30.88
2018-05-10T12:41:07.051Z,30.91
2018-05-10T12:42:07.030Z,30.97
2018-05-10T12:43:07.075Z,31.01
2018-05-10T12:44:06.786Z,31.04
2018-05-10T12:45:07.088Z,31.01
2018-05-10T12:46:07.071Z,31.09
2018-05-10T12:47:07.102Z,31.17
2018-05-10T12:48:07.067Z,31.21
2018-05-10T12:49:07.068Z,31.19
2018-05-10T12:50:07.092Z,31.19
2018-05-10T12:51:07.114Z,31.23
2018-05-10T12:52:07.119Z,31.25
2018-05-10T12:53:07.092Z,31.21
2018-05-10T12:54:06.859Z,31.23
2018-05-10T12:55:06.925Z,31.25
2018-05-10T12:56:07.324Z,31.25
2018-05-10T12:57:07.122Z,31.32
2018-05-10T12:58:06.880Z,31.46